sensor_id;sensor_type;location;lat;lon;timestamp;pressure;altitude;pressure_sealevel;temperature;humidity
81511;BME280;70931;48.796;8.440;2024-02-15T00:01:47;97658.88;;;11.50;71.61
81511;BME280;70931;48.796;8.440;2024-02-15T00:04:19;97664.88;;;11.52;71.53
81511;BME280;70931;48.796;8.440;2024-02-15T00:06:54;97655.69;;;11.38;71.91
81511;BME280;70931;48.796;8.440;2024-02-15T00:09:25;97659.84;;;11.25;72.40
81511;BME280;70931;48.796;8.440;2024-02-15T00:12:22;97655.50;;;11.40;71.57
81511;BME280;70931;48.796;8.440;2024-02-15T00:15:22;97652.97;;;11.22;72.21
81511;BME280;70931;48.796;8.440;2024-02-15T00:17:54;97658.16;;;11.16;72.62
81511;BME280;70931;48.796;8.440;2024-02-15T00:27:17;97657.41;;;10.81;73.86
81511;BME280;70931;48.796;8.440;2024-02-15T00:29:55;97655.59;;;10.56;73.30
81511;BME280;70931;48.796;8.440;2024-02-15T00:33:09;97649.78;;;10.53;74.75
81511;BME280;70931;48.796;8.440;2024-02-15T00:35:49;97660.38;;;10.45;73.65
81511;BME280;70931;48.796;8.440;2024-02-15T00:38:41;97653.56;;;10.42;75.35
81511;BME280;70931;48.796;8.440;2024-02-15T00:41:06;97657.34;;;10.32;75.22
81511;BME280;70931;48.796;8.440;2024-02-15T00:43:34;97659.19;;;10.39;74.67
81511;BME280;70931;48.796;8.440;2024-02-15T00:46:00;97658.69;;;10.36;74.94
81511;BME280;70931;48.796;8.440;2024-02-15T00:48:25;97656.81;;;10.28;74.60
81511;BME280;70931;48.796;8.440;2024-02-15T00:50:50;97657.88;;;10.35;74.32
81511;BME280;70931;48.796;8.440;2024-02-15T00:53:15;97658.50;;;10.29;75.16
81511;BME280;70931;48.796;8.440;2024-02-15T00:55:41;97651.16;;;10.31;75.16
81511;BME280;70931;48.796;8.440;2024-02-15T00:58:06;97646.97;;;10.03;73.83
81511;BME280;70931;48.796;8.440;2024-02-15T01:00:31;97650.47;;;9.78;74.86
81511;BME280;70931;48.796;8.440;2024-02-15T01:02:57;97655.75;;;9.69;76.26
81511;BME280;70931;48.796;8.440;2024-02-15T01:05:23;97647.19;;;9.84;75.83
81511;BME280;70931;48.796;8.440;2024-02-15T01:07:48;97654.06;;;9.68;75.92
81511;BME280;70931;48.796;8.440;2024-02-15T01:10:13;97661.53;;;9.91;75.30
81511;BME280;70931;48.796;8.440;2024-02-15T01:12:38;97654.88;;;9.87;75.12
81511;BME280;70931;48.796;8.440;2024-02-15T01:15:04;97659.91;;;9.72;74.97
81511;BME280;70931;48.796;8.440;2024-02-15T01:17:29;97648.00;;;9.58;75.55
81511;BME280;70931;48.796;8.440;2024-02-15T01:19:55;97642.53;;;9.42;76.12
81511;BME280;70931;48.796;8.440;2024-02-15T01:22:20;97659.16;;;9.44;76.05
81511;BME280;70931;48.796;8.440;2024-02-15T01:24:45;97651.56;;;8.96;77.60
81511;BME280;70931;48.796;8.440;2024-02-15T01:27:11;97650.97;;;9.20;78.42
81511;BME280;70931;48.796;8.440;2024-02-15T01:29:36;97658.19;;;9.45;76.54
81511;BME280;70931;48.796;8.440;2024-02-15T01:32:01;97658.72;;;9.31;78.19
81511;BME280;70931;48.796;8.440;2024-02-15T01:34:27;97663.53;;;9.45;76.61
81511;BME280;70931;48.796;8.440;2024-02-15T01:36:52;97662.13;;;9.41;76.41
81511;BME280;70931;48.796;8.440;2024-02-15T01:39:17;97665.88;;;9.31;76.91
81511;BME280;70931;48.796;8.440;2024-02-15T01:41:49;97668.19;;;8.98;77.39
81511;BME280;70931;48.796;8.440;2024-02-15T01:44:14;97658.91;;;9.12;77.46
81511;BME280;70931;48.796;8.440;2024-02-15T01:46:40;97648.19;;;9.04;78.38
81511;BME280;70931;48.796;8.440;2024-02-15T01:49:05;97649.59;;;9.16;77.43
81511;BME280;70931;48.796;8.440;2024-02-15T01:51:31;97662.41;;;9.12;77.36
81511;BME280;70931;48.796;8.440;2024-02-15T01:53:56;97655.66;;;8.91;78.37
81511;BME280;70931;48.796;8.440;2024-02-15T01:56:22;97665.28;;;8.74;79.42
81511;BME280;70931;48.796;8.440;2024-02-15T01:58:48;97665.03;;;8.95;78.31
81511;BME280;70931;48.796;8.440;2024-02-15T02:01:14;97662.06;;;8.98;76.58
81511;BME280;70931;48.796;8.440;2024-02-15T02:03:40;97659.09;;;8.56;77.79
81511;BME280;70931;48.796;8.440;2024-02-15T02:06:05;97658.66;;;8.61;78.14
81511;BME280;70931;48.796;8.440;2024-02-15T02:08:30;97656.19;;;8.77;77.15
81511;BME280;70931;48.796;8.440;2024-02-15T02:10:56;97652.53;;;8.78;77.46
81511;BME280;70931;48.796;8.440;2024-02-15T02:13:21;97650.25;;;8.83;78.22
81511;BME280;70931;48.796;8.440;2024-02-15T02:15:47;97649.78;;;8.70;76.69
81511;BME280;70931;48.796;8.440;2024-02-15T02:18:12;97649.28;;;8.56;77.86
81511;BME280;70931;48.796;8.440;2024-02-15T02:20:38;97649.38;;;8.65;78.40
81511;BME280;70931;48.796;8.440;2024-02-15T02:23:17;97651.19;;;8.64;78.23
81511;BME280;70931;48.796;8.440;2024-02-15T02:25:43;97645.41;;;8.51;77.69
81511;BME280;70931;48.796;8.440;2024-02-15T02:28:09;97641.72;;;8.25;79.42
81511;BME280;70931;48.796;8.440;2024-02-15T02:30:34;97637.38;;;8.33;79.00
81511;BME280;70931;48.796;8.440;2024-02-15T02:32:59;97636.78;;;8.39;78.81
81511;BME280;70931;48.796;8.440;2024-02-15T02:35:25;97637.56;;;8.49;78.36
81511;BME280;70931;48.796;8.440;2024-02-15T02:37:51;97649.97;;;8.31;78.03
81511;BME280;70931;48.796;8.440;2024-02-15T02:40:16;97648.53;;;8.46;78.62
81511;BME280;70931;48.796;8.440;2024-02-15T02:42:52;97644.28;;;8.53;78.39
81511;BME280;70931;48.796;8.440;2024-02-15T02:45:21;97652.09;;;8.28;77.43
81511;BME280;70931;48.796;8.440;2024-02-15T02:47:47;97647.63;;;8.28;78.04
81511;BME280;70931;48.796;8.440;2024-02-15T02:50:13;97648.06;;;8.14;77.97
81511;BME280;70931;48.796;8.440;2024-02-15T02:52:38;97652.78;;;8.20;77.27
81511;BME280;70931;48.796;8.440;2024-02-15T02:55:03;97645.94;;;8.27;79.04
81511;BME280;70931;48.796;8.440;2024-02-15T02:57:29;97646.56;;;8.39;78.18
81511;BME280;70931;48.796;8.440;2024-02-15T02:59:54;97648.97;;;8.32;77.65
81511;BME280;70931;48.796;8.440;2024-02-15T03:02:19;97649.44;;;8.18;78.25
81511;BME280;70931;48.796;8.440;2024-02-15T03:04:44;97647.22;;;8.14;79.08
81511;BME280;70931;48.796;8.440;2024-02-15T03:07:10;97630.63;;;8.02;80.15
81511;BME280;70931;48.796;8.440;2024-02-15T03:09:35;97634.66;;;8.06;78.77
81511;BME280;70931;48.796;8.440;2024-02-15T03:12:00;97642.47;;;8.17;78.69
81511;BME280;70931;48.796;8.440;2024-02-15T03:14:26;97652.78;;;8.20;78.89
81511;BME280;70931;48.796;8.440;2024-02-15T03:16:51;97648.00;;;8.24;78.26
81511;BME280;70931;48.796;8.440;2024-02-15T03:19:20;97654.44;;;8.21;77.82
81511;BME280;70931;48.796;8.440;2024-02-15T03:22:01;97644.81;;;8.20;77.86
81511;BME280;70931;48.796;8.440;2024-02-15T03:24:35;97658.09;;;8.20;78.76
81511;BME280;70931;48.796;8.440;2024-02-15T03:27:07;97663.00;;;8.15;78.50
81511;BME280;70931;48.796;8.440;2024-02-15T03:29:39;97657.09;;;8.21;79.45
81511;BME280;70931;48.796;8.440;2024-02-15T03:32:22;97657.28;;;8.29;78.72
81511;BME280;70931;48.796;8.440;2024-02-15T03:38:12;97655.16;;;8.23;78.33
81511;BME280;70931;48.796;8.440;2024-02-15T03:40:53;97659.81;;;8.12;78.96
81511;BME280;70931;48.796;8.440;2024-02-15T03:43:29;97662.19;;;8.15;79.00
81511;BME280;70931;48.796;8.440;2024-02-15T03:46:18;97658.19;;;7.91;78.21
81511;BME280;70931;48.796;8.440;2024-02-15T03:49:06;97662.09;;;7.97;78.66
81511;BME280;70931;48.796;8.440;2024-02-15T03:51:34;97659.84;;;8.02;79.32
81511;BME280;70931;48.796;8.440;2024-02-15T03:54:00;97660.13;;;7.99;79.77
81511;BME280;70931;48.796;8.440;2024-02-15T03:56:25;97665.13;;;8.12;79.85
81511;BME280;70931;48.796;8.440;2024-02-15T03:58:50;97663.72;;;8.17;79.43
81511;BME280;70931;48.796;8.440;2024-02-15T04:01:16;97639.38;;;8.12;79.72
81511;BME280;70931;48.796;8.440;2024-02-15T04:03:41;97652.75;;;8.30;79.17
81511;BME280;70931;48.796;8.440;2024-02-15T04:06:06;97655.75;;;8.08;78.69
81511;BME280;70931;48.796;8.440;2024-02-15T04:08:32;97650.94;;;7.84;80.03
81511;BME280;70931;48.796;8.440;2024-02-15T04:10:57;97652.25;;;8.07;80.16
81511;BME280;70931;48.796;8.440;2024-02-15T04:13:22;97653.47;;;7.85;81.21
81511;BME280;70931;48.796;8.440;2024-02-15T04:15:47;97623.38;;;7.94;80.59
81511;BME280;70931;48.796;8.440;2024-02-15T04:18:13;97646.91;;;8.26;79.86
81511;BME280;70931;48.796;8.440;2024-02-15T04:20:38;97655.06;;;8.06;79.84
81511;BME280;70931;48.796;8.440;2024-02-15T04:23:03;97646.66;;;8.10;79.79
81511;BME280;70931;48.796;8.440;2024-02-15T04:25:28;97646.91;;;8.26;79.54
81511;BME280;70931;48.796;8.440;2024-02-15T04:27:54;97647.72;;;8.36;79.21
81511;BME280;70931;48.796;8.440;2024-02-15T04:30:19;97640.13;;;8.41;79.76
81511;BME280;70931;48.796;8.440;2024-02-15T04:32:44;97638.47;;;8.40;79.92
81511;BME280;70931;48.796;8.440;2024-02-15T04:35:10;97636.78;;;8.39;79.64
81511;BME280;70931;48.796;8.440;2024-02-15T04:37:36;97633.69;;;8.44;81.24
81511;BME280;70931;48.796;8.440;2024-02-15T04:40:01;97636.88;;;8.47;79.70
81511;BME280;70931;48.796;8.440;2024-02-15T04:42:26;97634.22;;;8.47;79.30
81511;BME280;70931;48.796;8.440;2024-02-15T04:44:52;97633.09;;;8.50;78.78
81511;BME280;70931;48.796;8.440;2024-02-15T04:47:17;97632.25;;;8.49;79.31
81511;BME280;70931;48.796;8.440;2024-02-15T04:49:42;97625.38;;;8.56;79.53
81511;BME280;70931;48.796;8.440;2024-02-15T04:52:07;97625.28;;;8.48;79.97
81511;BME280;70931;48.796;8.440;2024-02-15T04:54:33;97619.66;;;8.51;80.03
81511;BME280;70931;48.796;8.440;2024-02-15T04:56:58;97623.81;;;8.64;79.58
81511;BME280;70931;48.796;8.440;2024-02-15T04:59:23;97627.56;;;8.61;80.27
81511;BME280;70931;48.796;8.440;2024-02-15T05:01:49;97627.81;;;8.68;79.65
81511;BME280;70931;48.796;8.440;2024-02-15T05:04:14;97623.09;;;8.62;80.04
81511;BME280;70931;48.796;8.440;2024-02-15T05:06:39;97637.47;;;8.69;80.44
81511;BME280;70931;48.796;8.440;2024-02-15T05:09:05;97624.28;;;8.77;79.95
81511;BME280;70931;48.796;8.440;2024-02-15T05:11:30;97620.63;;;8.78;80.41
81511;BME280;70931;48.796;8.440;2024-02-15T05:13:55;97625.03;;;8.87;79.81
81511;BME280;70931;48.796;8.440;2024-02-15T05:16:20;97617.75;;;8.89;79.52
81511;BME280;70931;48.796;8.440;2024-02-15T05:18:45;97620.78;;;8.94;79.27
81511;BME280;70931;48.796;8.440;2024-02-15T05:21:11;97624.13;;;8.96;79.04
81511;BME280;70931;48.796;8.440;2024-02-15T05:23:38;97612.50;;;8.79;79.64
81511;BME280;70931;48.796;8.440;2024-02-15T05:26:03;97622.50;;;8.68;80.40
81511;BME280;70931;48.796;8.440;2024-02-15T05:28:29;97600.09;;;8.70;80.33
81511;BME280;70931;48.796;8.440;2024-02-15T05:31:13;97617.03;;;8.87;80.59
81511;BME280;70931;48.796;8.440;2024-02-15T05:33:39;97611.81;;;8.77;80.20
81511;BME280;70931;48.796;8.440;2024-02-15T05:36:04;97608.31;;;8.77;80.65
81511;BME280;70931;48.796;8.440;2024-02-15T05:38:29;97613.50;;;8.96;80.49
81511;BME280;70931;48.796;8.440;2024-02-15T05:40:54;97614.56;;;9.03;80.47
81511;BME280;70931;48.796;8.440;2024-02-15T05:43:20;97612.28;;;9.08;80.12
81511;BME280;70931;48.796;8.440;2024-02-15T05:45:45;97612.16;;;9.09;80.04
81511;BME280;70931;48.796;8.440;2024-02-15T05:48:10;97613.66;;;9.12;79.78
81511;BME280;70931;48.796;8.440;2024-02-15T05:50:35;97612.81;;;9.11;80.21
81511;BME280;70931;48.796;8.440;2024-02-15T05:53:00;97611.97;;;9.11;79.90
81511;BME280;70931;48.796;8.440;2024-02-15T05:55:26;97612.75;;;9.03;80.23
81511;BME280;70931;48.796;8.440;2024-02-15T05:57:51;97605.97;;;9.09;80.12
81511;BME280;70931;48.796;8.440;2024-02-15T06:00:18;97603.16;;;8.93;81.14
81511;BME280;70931;48.796;8.440;2024-02-15T06:02:43;97588.13;;;8.84;81.02
81511;BME280;70931;48.796;8.440;2024-02-15T06:05:08;97605.97;;;9.09;80.30
81511;BME280;70931;48.796;8.440;2024-02-15T06:07:33;97597.41;;;9.15;80.35
81511;BME280;70931;48.796;8.440;2024-02-15T06:09:59;97592.06;;;9.15;80.08
81511;BME280;70931;48.796;8.440;2024-02-15T06:12:24;97603.47;;;9.25;80.08
81511;BME280;70931;48.796;8.440;2024-02-15T06:14:49;97600.97;;;9.24;80.18
81511;BME280;70931;48.796;8.440;2024-02-15T06:17:14;97603.56;;;8.98;80.31
81511;BME280;70931;48.796;8.440;2024-02-15T06:19:40;97596.31;;;9.08;80.48
81511;BME280;70931;48.796;8.440;2024-02-15T06:22:05;97594.56;;;9.16;80.02
81511;BME280;70931;48.796;8.440;2024-02-15T06:24:30;97588.41;;;9.16;79.82
81511;BME280;70931;48.796;8.440;2024-02-15T06:26:55;97593.06;;;9.14;79.84
81511;BME280;70931;48.796;8.440;2024-02-15T06:29:21;97587.38;;;9.09;80.92
81511;BME280;70931;48.796;8.440;2024-02-15T06:31:46;97585.13;;;9.04;80.39
81511;BME280;70931;48.796;8.440;2024-02-15T06:34:11;97594.72;;;8.97;80.02
81511;BME280;70931;48.796;8.440;2024-02-15T06:36:57;97603.38;;;8.99;79.95
81511;BME280;70931;48.796;8.440;2024-02-15T06:39:22;97594.19;;;8.94;79.98
81511;BME280;70931;48.796;8.440;2024-02-15T06:41:47;97594.78;;;8.88;79.81
81511;BME280;70931;48.796;8.440;2024-02-15T06:44:13;97585.47;;;8.84;80.40
81511;BME280;70931;48.796;8.440;2024-02-15T06:46:38;97587.50;;;8.90;80.67
81511;BME280;70931;48.796;8.440;2024-02-15T06:49:03;97578.16;;;8.86;80.72
81511;BME280;70931;48.796;8.440;2024-02-15T06:51:28;97581.78;;;8.67;80.37
81511;BME280;70931;48.796;8.440;2024-02-15T06:53:54;97575.94;;;8.64;80.33
81511;BME280;70931;48.796;8.440;2024-02-15T06:56:19;97578.38;;;8.75;80.31
81511;BME280;70931;48.796;8.440;2024-02-15T06:58:44;97577.59;;;8.65;80.36
81511;BME280;70931;48.796;8.440;2024-02-15T07:01:09;97570.53;;;8.73;80.27
81511;BME280;70931;48.796;8.440;2024-02-15T07:03:34;97575.66;;;8.67;79.97
81511;BME280;70931;48.796;8.440;2024-02-15T07:06:00;97577.59;;;8.65;80.41
81511;BME280;70931;48.796;8.440;2024-02-15T07:08:25;97577.38;;;8.76;80.39
81511;BME280;70931;48.796;8.440;2024-02-15T07:10:50;97560.75;;;8.74;80.09
81511;BME280;70931;48.796;8.440;2024-02-15T07:13:16;97576.19;;;8.88;80.45
81511;BME280;70931;48.796;8.440;2024-02-15T07:15:41;97573.81;;;8.85;80.64
81511;BME280;70931;48.796;8.440;2024-02-15T07:18:06;97567.16;;;8.81;79.77
81511;BME280;70931;48.796;8.440;2024-02-15T07:20:35;97559.91;;;8.73;79.65
81511;BME280;70931;48.796;8.440;2024-02-15T07:23:00;97563.94;;;8.77;79.53
81511;BME280;70931;48.796;8.440;2024-02-15T07:25:25;97558.47;;;8.79;79.51
81511;BME280;70931;48.796;8.440;2024-02-15T07:27:50;97552.47;;;8.77;79.37
81511;BME280;70931;48.796;8.440;2024-02-15T07:30:15;97549.50;;;8.80;79.79
81511;BME280;70931;48.796;8.440;2024-02-15T07:32:41;97542.91;;;8.84;79.43
81511;BME280;70931;48.796;8.440;2024-02-15T07:35:06;97542.28;;;8.90;79.63
81511;BME280;70931;48.796;8.440;2024-02-15T07:37:31;97533.50;;;8.89;80.13
81511;BME280;70931;48.796;8.440;2024-02-15T07:39:57;97524.81;;;8.87;79.66
81511;BME280;70931;48.796;8.440;2024-02-15T07:42:22;97480.84;;;8.57;80.15
81511;BME280;70931;48.796;8.440;2024-02-15T07:44:51;97524.50;;;8.90;79.97
81511;BME280;70931;48.796;8.440;2024-02-15T07:47:16;97526.56;;;8.96;79.64
81511;BME280;70931;48.796;8.440;2024-02-15T07:49:42;97529.88;;;8.98;79.94
81511;BME280;70931;48.796;8.440;2024-02-15T07:52:07;97533.91;;;9.02;79.70
81511;BME280;70931;48.796;8.440;2024-02-15T07:54:33;97531.94;;;9.04;79.86
81511;BME280;70931;48.796;8.440;2024-02-15T07:56:58;97531.19;;;9.12;79.63
81511;BME280;70931;48.796;8.440;2024-02-15T07:59:24;97538.06;;;9.23;79.16
81511;BME280;70931;48.796;8.440;2024-02-15T08:01:49;97536.56;;;9.20;79.56
81511;BME280;70931;48.796;8.440;2024-02-15T08:04:15;97529.41;;;9.21;79.62
81511;BME280;70931;48.796;8.440;2024-02-15T08:06:40;97515.28;;;9.20;79.40
81511;BME280;70931;48.796;8.440;2024-02-15T08:09:05;97532.91;;;9.21;79.46
81511;BME280;70931;48.796;8.440;2024-02-15T08:11:31;97528.06;;;9.42;79.23
81511;BME280;70931;48.796;8.440;2024-02-15T08:13:56;97533.44;;;9.50;78.91
81511;BME280;70931;48.796;8.440;2024-02-15T08:16:25;97531.47;;;9.52;78.62
81511;BME280;70931;48.796;8.440;2024-02-15T08:18:51;97509.75;;;9.39;79.13
81511;BME280;70931;48.796;8.440;2024-02-15T08:21:16;97528.72;;;9.44;79.21
81511;BME280;70931;48.796;8.440;2024-02-15T08:23:42;97525.31;;;9.52;79.28
81511;BME280;70931;48.796;8.440;2024-02-15T08:26:07;97521.50;;;9.54;78.75
81511;BME280;70931;48.796;8.440;2024-02-15T08:28:32;97512.88;;;9.60;79.25
81511;BME280;70931;48.796;8.440;2024-02-15T08:30:58;97504.25;;;9.66;78.63
81511;BME280;70931;48.796;8.440;2024-02-15T08:33:26;97513.31;;;9.82;78.17
81511;BME280;70931;48.796;8.440;2024-02-15T08:35:51;97514.63;;;9.78;78.46
81511;BME280;70931;48.796;8.440;2024-02-15T08:38:16;97490.31;;;9.72;78.48
81511;BME280;70931;48.796;8.440;2024-02-15T08:40:42;97475.69;;;9.85;78.33
81511;BME280;70931;48.796;8.440;2024-02-15T08:43:07;97505.16;;;10.17;77.98
81511;BME280;70931;48.796;8.440;2024-02-15T08:45:32;97483.22;;;10.23;78.06
81511;BME280;70931;48.796;8.440;2024-02-15T08:47:58;97486.59;;;10.41;77.62
81511;BME280;70931;48.796;8.440;2024-02-15T08:50:23;97487.13;;;10.53;77.49
81511;BME280;70931;48.796;8.440;2024-02-15T08:52:48;97466.25;;;10.48;76.97
81511;BME280;70931;48.796;8.440;2024-02-15T08:55:14;97486.47;;;10.67;76.53
81511;BME280;70931;48.796;8.440;2024-02-15T08:57:39;97484.66;;;10.75;76.53
81511;BME280;70931;48.796;8.440;2024-02-15T09:00:05;97485.81;;;10.89;75.83
81511;BME280;70931;48.796;8.440;2024-02-15T09:02:31;97461.97;;;10.88;75.65
81511;BME280;70931;48.796;8.440;2024-02-15T09:04:56;97481.50;;;11.04;75.08
81511;BME280;70931;48.796;8.440;2024-02-15T09:07:21;97472.63;;;11.04;74.92
81511;BME280;70931;48.796;8.440;2024-02-15T09:09:46;97486.97;;;11.11;74.70
81511;BME280;70931;48.796;8.440;2024-02-15T09:12:12;97474.63;;;11.18;74.52
81511;BME280;70931;48.796;8.440;2024-02-15T09:14:37;97478.44;;;11.31;74.18
81511;BME280;70931;48.796;8.440;2024-02-15T09:17:03;97482.63;;;11.42;74.03
81511;BME280;70931;48.796;8.440;2024-02-15T09:19:28;97467.25;;;11.44;73.59
81511;BME280;70931;48.796;8.440;2024-02-15T09:21:55;97456.72;;;11.51;73.16
81511;BME280;70931;48.796;8.440;2024-02-15T09:24:21;97440.00;;;11.57;72.91
81511;BME280;70931;48.796;8.440;2024-02-15T09:26:46;97453.66;;;11.78;72.74
81511;BME280;70931;48.796;8.440;2024-02-15T09:29:11;97433.41;;;11.83;72.35
81511;BME280;70931;48.796;8.440;2024-02-15T09:31:36;97449.75;;;11.96;72.42
81511;BME280;70931;48.796;8.440;2024-02-15T09:34:02;97441.34;;;12.08;72.29
81511;BME280;70931;48.796;8.440;2024-02-15T09:36:27;97442.44;;;12.21;71.66
81511;BME280;70931;48.796;8.440;2024-02-15T09:38:52;97440.84;;;12.35;71.07
81511;BME280;70931;48.796;8.440;2024-02-15T09:41:18;97436.03;;;12.53;70.46
81511;BME280;70931;48.796;8.440;2024-02-15T09:43:43;97432.94;;;12.64;69.56
81511;BME280;70931;48.796;8.440;2024-02-15T09:46:08;97429.22;;;12.73;69.49
81511;BME280;70931;48.796;8.440;2024-02-15T09:48:34;97433.06;;;12.93;69.19
81511;BME280;70931;48.796;8.440;2024-02-15T09:50:59;97420.19;;;13.11;68.23
81511;BME280;70931;48.796;8.440;2024-02-15T09:53:26;97432.63;;;13.42;66.38
81511;BME280;70931;48.796;8.440;2024-02-15T09:55:53;97432.53;;;13.50;66.50
81511;BME280;70931;48.796;8.440;2024-02-15T09:58:18;97431.91;;;13.77;65.58
81511;BME280;70931;48.796;8.440;2024-02-15T10:00:44;97424.47;;;14.08;64.64
81511;BME280;70931;48.796;8.440;2024-02-15T10:03:10;97436.25;;;14.28;63.34
81511;BME280;70931;48.796;8.440;2024-02-15T10:05:37;97428.25;;;14.50;62.15
81511;BME280;70931;48.796;8.440;2024-02-15T10:08:03;97421.91;;;14.72;60.81
81511;BME280;70931;48.796;8.440;2024-02-15T10:10:29;97420.94;;;15.07;59.48
81511;BME280;70931;48.796;8.440;2024-02-15T10:12:55;97422.59;;;15.57;58.75
81511;BME280;70931;48.796;8.440;2024-02-15T10:17:55;97413.00;;;16.23;54.70
81511;BME280;70931;48.796;8.440;2024-02-15T10:20:21;97412.22;;;16.42;52.70
81511;BME280;70931;48.796;8.440;2024-02-15T10:22:46;97411.09;;;16.91;52.70
81511;BME280;70931;48.796;8.440;2024-02-15T10:25:12;97413.59;;;17.32;50.93
81511;BME280;70931;48.796;8.440;2024-02-15T10:27:39;97413.78;;;17.70;50.13
81511;BME280;70931;48.796;8.440;2024-02-15T10:30:18;97407.56;;;17.62;49.39
81511;BME280;70931;48.796;8.440;2024-02-15T10:32:44;97401.16;;;17.31;48.78
81511;BME280;70931;48.796;8.440;2024-02-15T10:35:09;97401.91;;;17.84;48.21
81511;BME280;70931;48.796;8.440;2024-02-15T10:37:35;97398.53;;;18.08;47.23
81511;BME280;70931;48.796;8.440;2024-02-15T10:40:06;97398.28;;;18.16;45.57
81511;BME280;70931;48.796;8.440;2024-02-15T10:42:32;97404.25;;;18.25;44.85
81511;BME280;70931;48.796;8.440;2024-02-15T10:44:58;97394.56;;;18.55;45.10
81511;BME280;70931;48.796;8.440;2024-02-15T10:47:24;97392.81;;;18.73;45.62
81511;BME280;70931;48.796;8.440;2024-02-15T10:49:49;97390.13;;;18.98;44.81
81511;BME280;70931;48.796;8.440;2024-02-15T10:52:15;97381.69;;;19.13;43.76
81511;BME280;70931;48.796;8.440;2024-02-15T10:54:56;97381.13;;;19.29;43.55
81511;BME280;70931;48.796;8.440;2024-02-15T10:57:26;97384.22;;;19.08;43.95
81511;BME280;70931;48.796;8.440;2024-02-15T10:59:58;97378.91;;;18.95;43.44
81511;BME280;70931;48.796;8.440;2024-02-15T11:02:27;97361.44;;;18.97;44.33
81511;BME280;70931;48.796;8.440;2024-02-15T11:04:53;97373.94;;;18.92;43.89
81511;BME280;70931;48.796;8.440;2024-02-15T11:07:19;97374.75;;;18.67;44.57
81511;BME280;70931;48.796;8.440;2024-02-15T11:09:44;97375.38;;;18.69;44.92
81511;BME280;70931;48.796;8.440;2024-02-15T11:12:10;97368.28;;;18.68;44.68
81511;BME280;70931;48.796;8.440;2024-02-15T11:14:35;97370.81;;;18.63;45.12
81511;BME280;70931;48.796;8.440;2024-02-15T11:17:02;97369.19;;;18.62;44.60
81511;BME280;70931;48.796;8.440;2024-02-15T11:22:08;97358.94;;;18.33;46.53
81511;BME280;70931;48.796;8.440;2024-02-15T11:24:34;97363.00;;;18.55;45.47
81511;BME280;70931;48.796;8.440;2024-02-15T11:27:00;97357.31;;;18.63;46.25
81511;BME280;70931;48.796;8.440;2024-02-15T11:29:58;97360.13;;;18.50;45.97
81511;BME280;70931;48.796;8.440;2024-02-15T11:35:11;97343.91;;;18.50;46.74
81511;BME280;70931;48.796;8.440;2024-02-15T11:37:50;97351.38;;;18.48;46.79
81511;BME280;70931;48.796;8.440;2024-02-15T11:40:16;97335.19;;;18.48;46.91
81511;BME280;70931;48.796;8.440;2024-02-15T11:42:41;97350.06;;;18.89;45.82
81511;BME280;70931;48.796;8.440;2024-02-15T11:45:07;97345.72;;;18.88;46.06
81511;BME280;70931;48.796;8.440;2024-02-15T11:47:33;97355.66;;;18.94;45.70
81511;BME280;70931;48.796;8.440;2024-02-15T11:50:02;97337.38;;;18.89;46.21
81511;BME280;70931;48.796;8.440;2024-02-15T11:52:28;97348.22;;;18.83;46.13
81511;BME280;70931;48.796;8.440;2024-02-15T11:54:53;97342.31;;;18.99;45.23
81511;BME280;70931;48.796;8.440;2024-02-15T11:57:18;97337.94;;;18.98;45.38
81511;BME280;70931;48.796;8.440;2024-02-15T11:59:44;97331.16;;;18.89;45.62
81511;BME280;70931;48.796;8.440;2024-02-15T12:02:09;97330.31;;;19.13;44.80
81511;BME280;70931;48.796;8.440;2024-02-15T12:04:34;97323.50;;;19.10;44.40
81511;BME280;70931;48.796;8.440;2024-02-15T12:07:00;97329.16;;;19.27;43.99
81511;BME280;70931;48.796;8.440;2024-02-15T12:09:25;97324.63;;;19.21;44.35
81511;BME280;70931;48.796;8.440;2024-02-15T12:11:57;97328.47;;;19.31;45.22
81511;BME280;70931;48.796;8.440;2024-02-15T12:14:23;97308.53;;;19.08;45.31
81511;BME280;70931;48.796;8.440;2024-02-15T12:17:01;97329.69;;;19.35;45.43
81511;BME280;70931;48.796;8.440;2024-02-15T12:19:27;97325.63;;;19.51;45.02
81511;BME280;70931;48.796;8.440;2024-02-15T12:21:52;97314.69;;;19.58;44.85
81511;BME280;70931;48.796;8.440;2024-02-15T12:24:18;97310.63;;;19.49;45.06
81511;BME280;70931;48.796;8.440;2024-02-15T12:26:44;97300.88;;;19.48;45.18
81511;BME280;70931;48.796;8.440;2024-02-15T12:29:09;97294.66;;;19.65;44.61
81511;BME280;70931;48.796;8.440;2024-02-15T12:31:37;97282.44;;;19.74;44.57
81511;BME280;70931;48.796;8.440;2024-02-15T12:34:03;97293.84;;;19.95;44.76
81511;BME280;70931;48.796;8.440;2024-02-15T12:36:29;97300.00;;;20.02;43.71
81511;BME280;70931;48.796;8.440;2024-02-15T12:39:02;97302.31;;;20.16;43.63
81511;BME280;70931;48.796;8.440;2024-02-15T12:41:27;97296.97;;;20.10;43.97
81511;BME280;70931;48.796;8.440;2024-02-15T12:43:53;97294.78;;;20.18;42.93
81511;BME280;70931;48.796;8.440;2024-02-15T12:46:19;97295.44;;;20.32;42.92
81511;BME280;70931;48.796;8.440;2024-02-15T12:48:45;97282.53;;;20.16;43.23
81511;BME280;70931;48.796;8.440;2024-02-15T12:51:16;97265.31;;;20.10;43.37
81511;BME280;70931;48.796;8.440;2024-02-15T12:53:42;97279.31;;;20.25;43.55
81511;BME280;70931;48.796;8.440;2024-02-15T12:56:07;97272.50;;;19.86;44.71
81511;BME280;70931;48.796;8.440;2024-02-15T12:58:33;97263.22;;;19.82;44.04
81511;BME280;70931;48.796;8.440;2024-02-15T13:00:58;97260.03;;;19.85;43.96
81511;BME280;70931;48.796;8.440;2024-02-15T13:03:23;97256.88;;;19.88;44.47
81511;BME280;70931;48.796;8.440;2024-02-15T13:05:49;97252.28;;;19.89;44.31
81511;BME280;70931;48.796;8.440;2024-02-15T13:08:14;97243.84;;;19.97;44.08
81511;BME280;70931;48.796;8.440;2024-02-15T13:10:39;97250.03;;;20.16;43.70
81511;BME280;70931;48.796;8.440;2024-02-15T13:13:05;97238.78;;;20.01;43.70
81511;BME280;70931;48.796;8.440;2024-02-15T13:15:30;97239.91;;;19.63;45.50
81511;BME280;70931;48.796;8.440;2024-02-15T13:17:56;97232.50;;;19.59;45.79
81511;BME280;70931;48.796;8.440;2024-02-15T13:20:21;97234.69;;;19.50;45.36
81511;BME280;70931;48.796;8.440;2024-02-15T13:22:47;97226.56;;;19.50;45.68
81511;BME280;70931;48.796;8.440;2024-02-15T13:25:12;97228.13;;;19.58;44.75